createdAt,value
2023-02-18T00:01:32.345Z,100997.00
2023-02-18T00:04:00.338Z,101002.00
2023-02-18T00:06:32.155Z,100996.00
2023-02-18T00:09:02.121Z,100987.00
2023-02-18T00:11:33.647Z,100988.00
2023-02-18T00:14:04.120Z,100989.00
2023-02-18T00:16:31.704Z,100985.00
2023-02-18T00:19:02.016Z,100983.00
2023-02-18T00:21:29.470Z,100989.00
2023-02-18T00:23:56.631Z,100993.00
2023-02-18T00:26:23.786Z,100998.00
2023-02-18T00:28:51.896Z,101018.00
2023-02-18T00:31:23.796Z,101011.00
2023-02-18T00:33:51.064Z,101008.00
2023-02-18T00:36:20.568Z,101008.00
2023-02-18T00:38:58.428Z,101017.00
2023-02-18T00:41:28.741Z,101015.00
2023-02-18T00:43:55.996Z,101019.00
2023-02-18T00:46:24.494Z,101021.00
2023-02-18T00:48:51.271Z,101036.00
2023-02-18T00:51:18.192Z,101017.00
2023-02-18T00:53:44.990Z,101025.00
2023-02-18T00:56:11.999Z,101027.00
2023-02-18T00:58:38.829Z,101042.00
2023-02-18T01:01:07.860Z,101032.00
2023-02-18T01:03:36.447Z,101032.00
2023-02-18T01:06:04.797Z,101030.00
2023-02-18T01:08:31.545Z,101030.00
2023-02-18T01:10:59.838Z,101040.00
2023-02-18T01:13:28.214Z,101030.00
2023-02-18T01:15:55.202Z,101030.00
2023-02-18T01:18:22.989Z,101009.00
2023-02-18T01:20:49.797Z,101021.00
2023-02-18T01:23:17.419Z,101024.00
2023-02-18T01:25:45.588Z,101025.00
2023-02-18T01:28:14.147Z,101028.00
2023-02-18T01:30:42.273Z,101030.00
2023-02-18T01:33:10.190Z,101020.00
2023-02-18T01:35:40.504Z,101022.00
2023-02-18T01:38:08.394Z,101030.00
2023-02-18T01:40:35.698Z,101028.00
2023-02-18T01:43:02.518Z,101021.00
2023-02-18T01:45:35.178Z,101019.00
2023-02-18T01:48:29.041Z,101024.00
2023-02-18T01:51:09.821Z,101034.00
2023-02-18T01:53:54.840Z,101032.00
2023-02-18T01:56:31.940Z,101037.00
2023-02-18T01:59:07.506Z,101041.00
2023-02-18T02:01:35.726Z,101028.00
2023-02-18T02:04:02.694Z,101014.00
2023-02-18T02:06:29.512Z,101016.00
2023-02-18T02:09:03.249Z,101014.00
2023-02-18T02:12:05.934Z,101032.00
2023-02-18T02:14:54.980Z,101042.00
2023-02-18T02:17:45.855Z,101028.00
2023-02-18T02:20:50.110Z,101037.00
2023-02-18T02:23:38.439Z,101034.00
2023-02-18T02:26:43.984Z,101045.00
2023-02-18T02:30:04.451Z,101042.00
2023-02-18T02:33:27.906Z,101030.00
2023-02-18T02:36:14.302Z,101031.00
2023-02-18T02:39:07.879Z,101032.00
2023-02-18T02:41:52.515Z,101029.00
2023-02-18T02:44:39.394Z,101031.00
2023-02-18T02:47:19.841Z,101042.00
2023-02-18T02:50:03.845Z,101038.00
2023-02-18T02:52:47.932Z,101041.00
2023-02-18T02:55:14.687Z,101037.00
2023-02-18T02:57:47.729Z,101050.00
2023-02-18T03:00:18.545Z,101049.00
2023-02-18T03:03:22.148Z,101047.00
2023-02-18T03:06:14.561Z,101038.00
2023-02-18T03:09:11.933Z,101056.00
2023-02-18T03:12:05.489Z,101035.00
2023-02-18T03:15:05.209Z,101041.00
2023-02-18T03:17:42.318Z,101041.00
2023-02-18T03:20:25.478Z,101025.00
2023-02-18T03:22:54.405Z,101032.00
2023-02-18T03:25:22.984Z,101041.00
2023-02-18T03:28:06.866Z,101037.00
2023-02-18T03:30:58.611Z,101022.00
2023-02-18T03:33:43.007Z,101026.00
2023-02-18T03:36:10.598Z,101034.00
2023-02-18T03:38:53.710Z,101028.00
2023-02-18T03:41:20.761Z,101023.00
2023-02-18T03:44:00.588Z,101029.00
2023-02-18T03:46:31.996Z,101026.00
2023-02-18T03:48:58.914Z,101027.00
2023-02-18T03:51:25.972Z,101027.00
2023-02-18T03:53:52.837Z,101034.00
2023-02-18T03:56:20.392Z,101027.00
2023-02-18T03:58:47.409Z,101022.00
2023-02-18T04:01:14.395Z,101037.00
2023-02-18T04:03:41.147Z,101040.00
2023-02-18T04:06:08.717Z,101040.00
2023-02-18T04:08:35.876Z,101049.00
2023-02-18T04:11:02.653Z,101026.00
2023-02-18T04:13:29.391Z,101049.00
2023-02-18T04:15:56.235Z,101033.00
2023-02-18T04:18:23.499Z,101045.00
2023-02-18T04:20:50.463Z,101036.00
2023-02-18T04:23:17.209Z,101061.00
2023-02-18T04:25:43.927Z,101059.00
2023-02-18T04:28:13.462Z,101058.00
2023-02-18T04:30:40.490Z,101064.00
2023-02-18T04:33:07.344Z,101057.00
2023-02-18T04:35:34.638Z,101064.00
2023-02-18T04:38:01.799Z,101064.00
2023-02-18T04:40:30.642Z,101063.00
2023-02-18T04:42:58.812Z,101059.00
2023-02-18T04:45:27.693Z,101060.00
2023-02-18T04:47:55.242Z,101064.00
2023-02-18T04:50:23.191Z,101071.00
2023-02-18T04:52:50.168Z,101061.00
2023-02-18T04:55:17.049Z,101062.00
2023-02-18T04:57:43.816Z,101068.00
2023-02-18T05:00:17.137Z,101069.00
2023-02-18T05:02:45.267Z,101072.00
2023-02-18T05:05:13.593Z,101069.00
2023-02-18T05:07:42.385Z,101069.00
2023-02-18T05:10:14.427Z,101075.00
2023-02-18T05:12:41.149Z,101076.00
2023-02-18T05:15:08.858Z,101058.00
2023-02-18T05:17:36.110Z,101059.00
2023-02-18T05:20:03.751Z,101063.00
2023-02-18T05:22:30.506Z,101066.00
2023-02-18T05:24:57.264Z,101072.00
2023-02-18T05:27:24.008Z,101054.00
2023-02-18T05:29:50.718Z,101049.00
2023-02-18T05:32:17.708Z,101057.00
2023-02-18T05:34:44.425Z,101046.00
2023-02-18T05:37:11.166Z,101045.00
2023-02-18T05:39:37.958Z,101048.00
2023-02-18T05:42:04.832Z,101045.00
2023-02-18T05:44:31.623Z,101043.00
2023-02-18T05:47:11.694Z,101049.00
2023-02-18T05:49:40.542Z,101041.00
2023-02-18T05:52:08.306Z,101037.00
2023-02-18T05:54:36.987Z,101042.00
2023-02-18T05:57:04.246Z,101046.00
2023-02-18T05:59:31.624Z,101043.00
2023-02-18T06:01:59.107Z,101047.00
2023-02-18T06:04:25.914Z,101044.00
2023-02-18T06:06:52.733Z,101058.00
2023-02-18T06:09:19.479Z,101053.00
2023-02-18T06:11:46.426Z,101046.00
2023-02-18T06:14:13.298Z,101056.00
2023-02-18T06:16:40.077Z,101053.00
2023-02-18T06:19:07.094Z,101042.00
2023-02-18T06:21:33.872Z,101041.00
2023-02-18T06:24:00.632Z,101044.00
2023-02-18T06:26:27.431Z,101050.00
2023-02-18T06:28:54.210Z,101047.00
2023-02-18T06:31:21.108Z,101052.00
2023-02-18T06:33:47.862Z,101054.00
2023-02-18T06:36:15.202Z,101053.00
2023-02-18T06:38:46.084Z,101052.00
2023-02-18T06:41:14.604Z,101036.00
2023-02-18T06:43:41.773Z,101038.00
2023-02-18T06:46:08.830Z,101038.00
2023-02-18T06:48:35.957Z,101039.00
2023-02-18T06:51:03.568Z,101026.00
2023-02-18T06:53:30.319Z,101017.00
2023-02-18T06:55:57.240Z,101025.00
2023-02-18T06:58:24.214Z,101031.00
2023-02-18T07:00:51.110Z,101030.00
2023-02-18T07:03:17.940Z,101040.00
2023-02-18T07:05:44.837Z,101039.00
2023-02-18T07:08:12.210Z,101032.00
2023-02-18T07:10:39.287Z,101039.00
2023-02-18T07:13:06.621Z,101026.00
2023-02-18T07:15:33.574Z,101023.00
2023-02-18T07:18:00.700Z,101029.00
2023-02-18T07:20:28.354Z,101027.00
2023-02-18T07:22:55.602Z,101028.00
2023-02-18T07:25:23.430Z,101022.00
2023-02-18T07:27:51.435Z,101006.00
2023-02-18T07:30:20.355Z,101004.00
2023-02-18T07:32:47.407Z,101010.00
2023-02-18T07:35:16.144Z,101007.00
2023-02-18T07:37:48.487Z,101027.00
2023-02-18T07:40:19.610Z,101013.00
2023-02-18T07:42:46.844Z,101004.00
2023-02-18T07:45:14.193Z,101009.00
2023-02-18T07:47:42.137Z,101000.00
2023-02-18T07:50:10.365Z,100985.00
2023-02-18T07:52:37.148Z,100986.00
2023-02-18T07:55:04.082Z,100991.00
2023-02-18T07:57:30.793Z,100986.00
2023-02-18T07:59:57.533Z,100987.00
2023-02-18T08:02:25.013Z,100984.00
2023-02-18T08:04:52.076Z,100993.00
2023-02-18T08:07:21.959Z,100997.00
2023-02-18T08:09:50.572Z,100985.00
2023-02-18T08:12:17.425Z,100982.00
2023-02-18T08:14:44.585Z,100971.00
2023-02-18T08:17:11.752Z,100968.00
2023-02-18T08:19:38.926Z,100967.00
2023-02-18T08:22:05.701Z,100956.00
2023-02-18T08:24:32.414Z,100954.00
2023-02-18T08:27:01.418Z,100949.00
2023-02-18T08:29:29.173Z,100955.00
2023-02-18T08:31:58.096Z,100952.00
2023-02-18T08:34:25.755Z,100949.00
2023-02-18T08:36:52.616Z,100944.00
2023-02-18T08:39:19.342Z,100927.00
2023-02-18T08:41:46.073Z,100941.00
2023-02-18T08:44:13.572Z,100942.00
2023-02-18T08:46:40.331Z,100940.00
2023-02-18T08:49:07.221Z,100932.00
2023-02-18T08:51:35.180Z,100931.00
2023-02-18T08:54:02.079Z,100941.00
2023-02-18T08:56:28.814Z,100932.00
2023-02-18T08:58:55.660Z,100932.00
2023-02-18T09:01:22.421Z,100938.00
2023-02-18T09:03:49.450Z,100922.00
2023-02-18T09:06:16.627Z,100924.00
2023-02-18T09:08:43.748Z,100928.00
2023-02-18T09:11:11.669Z,100917.00
2023-02-18T09:13:38.949Z,100903.00
2023-02-18T09:16:11.015Z,100910.00
2023-02-18T09:18:37.837Z,100905.00
2023-02-18T09:21:08.096Z,100897.00
2023-02-18T09:23:36.380Z,100891.00
2023-02-18T09:26:14.261Z,100896.00
2023-02-18T09:28:41.530Z,100889.00
2023-02-18T09:31:12.832Z,100885.00
2023-02-18T09:33:46.196Z,100875.00
2023-02-18T09:36:13.634Z,100877.00
2023-02-18T09:38:40.364Z,100877.00
2023-02-18T09:41:20.228Z,100863.00
2023-02-18T09:43:53.779Z,100874.00
2023-02-18T09:46:30.173Z,100839.00
2023-02-18T09:49:00.698Z,100835.00
2023-02-18T09:51:27.510Z,100832.00
2023-02-18T09:53:54.756Z,100830.00
2023-02-18T09:56:31.006Z,100814.00
2023-02-18T09:59:04.255Z,100806.00
2023-02-18T10:01:39.962Z,100811.00
2023-02-18T10:04:19.042Z,100802.00
2023-02-18T10:06:48.762Z,100803.00
2023-02-18T10:09:29.560Z,100796.00
2023-02-18T10:12:07.999Z,100796.00
2023-02-18T10:14:36.003Z,100793.00
2023-02-18T10:17:04.783Z,100797.00
2023-02-18T10:19:36.102Z,100792.00
2023-02-18T10:22:06.772Z,100772.00
2023-02-18T10:24:51.891Z,100765.00
2023-02-18T10:27:32.710Z,100755.00
2023-02-18T10:30:32.780Z,100744.00
2023-02-18T10:33:53.923Z,100729.00
2023-02-18T10:36:46.755Z,100718.00
2023-02-18T10:40:20.753Z,100707.00
2023-02-18T10:43:11.658Z,100690.00
2023-02-18T10:45:50.798Z,100672.00
2023-02-18T10:48:37.049Z,100659.00
2023-02-18T10:51:28.244Z,100653.00
2023-02-18T10:53:56.473Z,100657.00
2023-02-18T10:56:39.683Z,100650.00
2023-02-18T10:59:24.087Z,100646.00
2023-02-18T11:02:02.154Z,100634.00
2023-02-18T11:04:39.746Z,100629.00
2023-02-18T11:07:17.155Z,100613.00
2023-02-18T11:09:56.242Z,100610.00
2023-02-18T11:12:48.978Z,100600.00
2023-02-18T11:15:16.260Z,100573.00
2023-02-18T11:17:47.108Z,100570.00
2023-02-18T11:20:36.158Z,100558.00
2023-02-18T11:23:19.442Z,100549.00
2023-02-18T11:26:11.222Z,100542.00
2023-02-18T11:28:49.949Z,100549.00
2023-02-18T11:31:30.819Z,100533.00
2023-02-18T11:34:03.056Z,100531.00
2023-02-18T11:36:36.089Z,100538.00
2023-02-18T11:39:16.253Z,100522.00
2023-02-18T11:41:49.301Z,100517.00
2023-02-18T11:44:38.323Z,100503.00
2023-02-18T11:47:12.668Z,100496.00
2023-02-18T11:49:41.964Z,100497.00
2023-02-18T11:52:27.174Z,100491.00
2023-02-18T11:55:15.475Z,100465.00
2023-02-18T11:57:55.628Z,100459.00
2023-02-18T12:00:36.243Z,100457.00
2023-02-18T12:03:15.256Z,100442.00
2023-02-18T12:05:45.569Z,100444.00
2023-02-18T12:08:27.041Z,100438.00
2023-02-18T12:11:01.304Z,100428.00
2023-02-18T12:13:56.492Z,100418.00
2023-02-18T12:16:34.919Z,100410.00
2023-02-18T12:19:36.332Z,100406.00
2023-02-18T12:22:37.553Z,100406.00
2023-02-18T12:25:26.268Z,100412.00
2023-02-18T12:28:24.899Z,100386.00
2023-02-18T12:31:17.560Z,100397.00
2023-02-18T12:34:20.435Z,100395.00
2023-02-18T12:37:26.599Z,100374.00
2023-02-18T12:40:26.446Z,100374.00
2023-02-18T12:43:12.612Z,100369.00
2023-02-18T12:45:54.745Z,100353.00
2023-02-18T12:49:06.175Z,100358.00
2023-02-18T12:52:38.508Z,100342.00
2023-02-18T12:55:44.348Z,100349.00
2023-02-18T12:58:28.243Z,100346.00
2023-02-18T13:01:11.821Z,100338.00
2023-02-18T13:04:01.334Z,100324.00
2023-02-18T13:07:28.320Z,100314.00
2023-02-18T13:10:41.673Z,100316.00
2023-02-18T13:13:23.831Z,100303.00
2023-02-18T13:16:09.297Z,100309.00
2023-02-18T13:18:44.223Z,100303.00
2023-02-18T13:21:16.784Z,100299.00
2023-02-18T13:23:52.737Z,100289.00
2023-02-18T13:26:21.487Z,100287.00
2023-02-18T13:29:18.402Z,100288.00
2023-02-18T13:32:19.077Z,100304.00
2023-02-18T13:35:25.519Z,100296.00
2023-02-18T13:38:34.804Z,100309.00
2023-02-18T13:41:02.297Z,100304.00
2023-02-18T13:43:34.863Z,100284.00
2023-02-18T13:46:22.834Z,100301.00
2023-02-18T13:48:52.645Z,100293.00
2023-02-18T13:51:48.733Z,100289.00
2023-02-18T13:54:43.122Z,100297.00
2023-02-18T13:57:22.826Z,100294.00
2023-02-18T13:59:58.302Z,100287.00
2023-02-18T14:02:26.115Z,100293.00
2023-02-18T14:04:55.864Z,100297.00
2023-02-18T14:07:35.777Z,100276.00
2023-02-18T14:10:25.235Z,100294.00
2023-02-18T14:12:58.080Z,100292.00
2023-02-18T14:15:24.848Z,100271.00
2023-02-18T14:18:13.479Z,100281.00
2023-02-18T14:20:40.126Z,100279.00
2023-02-18T14:23:19.052Z,100310.00
2023-02-18T14:25:57.143Z,100285.00
2023-02-18T14:28:38.468Z,100275.00
2023-02-18T14:31:35.690Z,100280.00
2023-02-18T14:34:24.455Z,100288.00
2023-02-18T14:37:45.123Z,100280.00
2023-02-18T14:40:50.909Z,100270.00
2023-02-18T14:44:04.477Z,100287.00
2023-02-18T14:47:06.246Z,100288.00
2023-02-18T14:49:44.764Z,100298.00
2023-02-18T14:52:30.013Z,100295.00
2023-02-18T14:55:00.231Z,100308.00
2023-02-18T14:57:46.064Z,100314.00
2023-02-18T15:00:21.330Z,100297.00
2023-02-18T15:02:56.356Z,100305.00
2023-02-18T15:05:30.329Z,100316.00
2023-02-18T15:08:03.230Z,100316.00
2023-02-18T15:10:45.494Z,100292.00
2023-02-18T15:13:26.924Z,100313.00
2023-02-18T15:16:15.647Z,100299.00
2023-02-18T15:18:51.891Z,100312.00
2023-02-18T15:21:32.966Z,100315.00
2023-02-18T15:24:31.310Z,100308.00
2023-02-18T15:27:15.115Z,100314.00
2023-02-18T15:29:42.098Z,100313.00
2023-02-18T15:32:24.838Z,100323.00
2023-02-18T15:34:58.838Z,100324.00
2023-02-18T15:37:25.594Z,100342.00
2023-02-18T15:39:52.343Z,100350.00
2023-02-18T15:42:39.353Z,100347.00
2023-02-18T15:45:19.928Z,100359.00
2023-02-18T15:47:51.400Z,100364.00
2023-02-18T15:50:23.538Z,100383.00
2023-02-18T15:52:53.471Z,100399.00
2023-02-18T15:55:39.572Z,100408.00
2023-02-18T15:58:15.739Z,100391.00
2023-02-18T16:00:54.806Z,100414.00
2023-02-18T16:03:31.119Z,100404.00
2023-02-18T16:06:19.110Z,100410.00
2023-02-18T16:09:26.918Z,100423.00
2023-02-18T16:11:59.836Z,100426.00
2023-02-18T16:14:45.004Z,100436.00
2023-02-18T16:17:21.855Z,100432.00
2023-02-18T16:20:08.947Z,100444.00
2023-02-18T16:22:44.665Z,100454.00
2023-02-18T16:25:41.643Z,100454.00
2023-02-18T16:28:27.773Z,100476.00
2023-02-18T16:30:54.580Z,100467.00
2023-02-18T16:33:21.421Z,100473.00
2023-02-18T16:35:50.236Z,100463.00
2023-02-18T16:38:24.172Z,100446.00
2023-02-18T16:40:53.574Z,100483.00
2023-02-18T16:43:27.389Z,100502.00
2023-02-18T16:45:58.720Z,100525.00
2023-02-18T16:48:37.271Z,100533.00
2023-02-18T16:51:15.462Z,100538.00
2023-02-18T16:53:42.252Z,100546.00
2023-02-18T16:56:35.494Z,100546.00
2023-02-18T16:59:02.328Z,100559.00
2023-02-18T17:01:32.329Z,100572.00
2023-02-18T17:04:00.992Z,100581.00
2023-02-18T17:06:29.692Z,100579.00
2023-02-18T17:08:56.436Z,100599.00
2023-02-18T17:11:26.046Z,100606.00
2023-02-18T17:13:54.695Z,100622.00
2023-02-18T17:16:22.877Z,100622.00
2023-02-18T17:18:50.114Z,100639.00
2023-02-18T17:21:23.542Z,100637.00
2023-02-18T17:23:52.171Z,100651.00
2023-02-18T17:26:22.950Z,100670.00
2023-02-18T17:28:51.386Z,100664.00
2023-02-18T17:31:24.115Z,100669.00
2023-02-18T17:33:51.434Z,100684.00
2023-02-18T17:36:18.729Z,100684.00
2023-02-18T17:38:45.800Z,100682.00
2023-02-18T17:41:16.191Z,100679.00
2023-02-18T17:43:43.255Z,100705.00
2023-02-18T17:46:16.035Z,100715.00
2023-02-18T17:48:44.928Z,100717.00
2023-02-18T17:51:26.817Z,100714.00
2023-02-18T17:53:54.224Z,100719.00
2023-02-18T17:56:21.854Z,100728.00
2023-02-18T17:58:48.846Z,100719.00
2023-02-18T18:01:18.458Z,100714.00
2023-02-18T18:03:45.220Z,100734.00
2023-02-18T18:06:20.707Z,100734.00
2023-02-18T18:08:48.613Z,100739.00
2023-02-18T18:11:23.161Z,100737.00
2023-02-18T18:13:52.722Z,100745.00
2023-02-18T18:16:20.304Z,100738.00
2023-02-18T18:18:47.222Z,100763.00
2023-02-18T18:21:30.278Z,100774.00
2023-02-18T18:23:57.000Z,100777.00
2023-02-18T18:26:25.055Z,100779.00
2023-02-18T18:28:51.815Z,100777.00
2023-02-18T18:31:19.396Z,100796.00
2023-02-18T18:33:50.257Z,100792.00
2023-02-18T18:36:19.844Z,100795.00
2023-02-18T18:38:47.075Z,100805.00
2023-02-18T18:41:17.595Z,100797.00
2023-02-18T18:43:45.404Z,100799.00
2023-02-18T18:46:12.357Z,100797.00
2023-02-18T18:48:39.214Z,100797.00
2023-02-18T18:51:06.866Z,100811.00
2023-02-18T18:53:35.516Z,100808.00
2023-02-18T18:56:06.750Z,100824.00
2023-02-18T18:58:33.605Z,100832.00
2023-02-18T19:01:04.075Z,100824.00
2023-02-18T19:03:31.510Z,100829.00
2023-02-18T19:05:58.445Z,100847.00
2023-02-18T19:08:25.347Z,100854.00
2023-02-18T19:10:55.936Z,100847.00
2023-02-18T19:13:29.375Z,100860.00
2023-02-18T19:16:16.779Z,100851.00
2023-02-18T19:18:43.550Z,100835.00
2023-02-18T19:21:10.548Z,100844.00
2023-02-18T19:23:37.872Z,100865.00
2023-02-18T19:26:05.571Z,100869.00
2023-02-18T19:28:32.630Z,100865.00
2023-02-18T19:30:59.513Z,100859.00
2023-02-18T19:33:26.256Z,100859.00
2023-02-18T19:35:52.964Z,100864.00
2023-02-18T19:38:20.715Z,100850.00
2023-02-18T19:40:47.743Z,100871.00
2023-02-18T19:43:14.884Z,100875.00
2023-02-18T19:45:45.434Z,100880.00
2023-02-18T19:48:14.697Z,100885.00
2023-02-18T19:50:43.113Z,100884.00
2023-02-18T19:53:11.237Z,100864.00
2023-02-18T19:55:38.648Z,100875.00
2023-02-18T19:58:05.898Z,100879.00
2023-02-18T20:00:33.106Z,100882.00
2023-02-18T20:03:00.002Z,100878.00
2023-02-18T20:05:26.935Z,100886.00
2023-02-18T20:07:53.684Z,100888.00
2023-02-18T20:10:20.801Z,100899.00
2023-02-18T20:12:54.613Z,100895.00
2023-02-18T20:15:22.833Z,100890.00
2023-02-18T20:17:50.109Z,100899.00
2023-02-18T20:20:19.195Z,100891.00
2023-02-18T20:22:46.256Z,100892.00
2023-02-18T20:25:13.054Z,100900.00
2023-02-18T20:27:54.458Z,100899.00
2023-02-18T20:30:26.414Z,100913.00
2023-02-18T20:32:53.253Z,100912.00
2023-02-18T20:35:19.973Z,100909.00
2023-02-18T20:37:46.688Z,100924.00
2023-02-18T20:40:13.442Z,100915.00
2023-02-18T20:42:41.920Z,100914.00
2023-02-18T20:45:09.636Z,100919.00
2023-02-18T20:47:36.466Z,100927.00
2023-02-18T20:50:04.126Z,100930.00
2023-02-18T20:52:32.444Z,100926.00
2023-02-18T20:55:01.145Z,100933.00
2023-02-18T20:57:28.028Z,100930.00
2023-02-18T20:59:55.071Z,100943.00
2023-02-18T21:02:21.983Z,100936.00
2023-02-18T21:04:48.751Z,100933.00
2023-02-18T21:07:15.473Z,100938.00
2023-02-18T21:09:42.230Z,100934.00
2023-02-18T21:12:09.764Z,100930.00
2023-02-18T21:14:36.656Z,100936.00
2023-02-18T21:17:03.736Z,100934.00
2023-02-18T21:19:30.709Z,100940.00
2023-02-18T21:21:57.438Z,100938.00
2023-02-18T21:24:24.316Z,100941.00
2023-02-18T21:26:51.039Z,100952.00
2023-02-18T21:29:18.177Z,100944.00
2023-02-18T21:31:45.407Z,100956.00
2023-02-18T21:34:14.572Z,100949.00
2023-02-18T21:36:42.252Z,100962.00
2023-02-18T21:39:10.657Z,100950.00
2023-02-18T21:41:40.996Z,100965.00
2023-02-18T21:44:09.824Z,100961.00
2023-02-18T21:46:37.604Z,100951.00
2023-02-18T21:49:09.758Z,100951.00
2023-02-18T21:51:57.667Z,100954.00
2023-02-18T21:54:31.533Z,100953.00
2023-02-18T21:57:00.763Z,100954.00
2023-02-18T21:59:30.294Z,100946.00
2023-02-18T22:02:01.393Z,100951.00
2023-02-18T22:04:29.873Z,100948.00
2023-02-18T22:06:56.742Z,100952.00
2023-02-18T22:09:23.493Z,100954.00
2023-02-18T22:11:50.249Z,100957.00
2023-02-18T22:14:17.690Z,100966.00
2023-02-18T22:16:44.660Z,100972.00
2023-02-18T22:19:13.894Z,100960.00
2023-02-18T22:21:41.614Z,100974.00
2023-02-18T22:24:10.923Z,100972.00
2023-02-18T22:26:37.670Z,100983.00
2023-02-18T22:29:04.915Z,100984.00
2023-02-18T22:31:32.982Z,100980.00
2023-02-18T22:34:00.449Z,100975.00
2023-02-18T22:36:29.331Z,100985.00
2023-02-18T22:38:57.338Z,100977.00
2023-02-18T22:41:27.191Z,100975.00
2023-02-18T22:44:03.289Z,100976.00
2023-02-18T22:46:32.686Z,100968.00
2023-02-18T22:49:00.631Z,100973.00
2023-02-18T22:51:37.908Z,100971.00
2023-02-18T22:54:16.008Z,100967.00
2023-02-18T22:56:46.501Z,100959.00
2023-02-18T22:59:17.233Z,100967.00
2023-02-18T23:01:52.848Z,100961.00
2023-02-18T23:04:21.354Z,100952.00
2023-02-18T23:06:49.622Z,100958.00
2023-02-18T23:09:23.830Z,100959.00
2023-02-18T23:11:58.025Z,100953.00
2023-02-18T23:14:28.082Z,100958.00
2023-02-18T23:17:13.658Z,100961.00
2023-02-18T23:19:50.068Z,100948.00
2023-02-18T23:22:33.237Z,100957.00
2023-02-18T23:25:01.341Z,100964.00
2023-02-18T23:27:29.491Z,100963.00
2023-02-18T23:29:56.701Z,100961.00
2023-02-18T23:32:25.356Z,100966.00
2023-02-18T23:34:52.197Z,100966.00
2023-02-18T23:37:38.911Z,100953.00
2023-02-18T23:40:06.714Z,100966.00
2023-02-18T23:42:33.464Z,100964.00
2023-02-18T23:45:00.219Z,100970.00
2023-02-18T23:47:27.156Z,100964.00
2023-02-18T23:49:53.875Z,100955.00
2023-02-18T23:52:21.050Z,100941.00
2023-02-18T23:54:47.782Z,100960.00
2023-02-18T23:57:14.501Z,100956.00
2023-02-18T23:59:41.302Z,100945.00
